Time;durP1;ratioP1;P1;durP2;ratioP2;P2;SDS_P1;SDS_P2;PMS_P1;PMS_P2;Temp;Humidity;BMP_temperature;BMP_pressure;BME280_temperature;BME280_humidity;BME280_pressure;Samples;Min_cycle;Max_cycle;Signal;HPM_P1;HPM_P2
2022/07/28 00:00:26;;;;;;;4.80;1.70;;;11.80;99.90;;;;;;5048184;28;20036;-73
2022/07/28 00:02:52;;;;;;;5.20;1.70;;;11.80;99.90;;;;;;5053674;28;20033;-74
2022/07/28 00:05:18;;;;;;;4.38;2.20;;;11.80;99.90;;;;;;5044171;28;20176;-74
2022/07/28 00:07:44;;;;;;;3.78;1.80;;;11.80;99.90;;;;;;5051817;28;20052;-74
2022/07/28 00:10:10;;;;;;;2.58;1.50;;;11.80;99.90;;;;;;5049717;28;20044;-73
2022/07/28 00:12:36;;;;;;;5.30;1.70;;;11.90;99.90;;;;;;5045881;28;20125;-73
2022/07/28 00:15:02;;;;;;;3.15;1.73;;;11.90;99.90;;;;;;5044804;28;20123;-73
2022/07/28 00:17:28;;;;;;;7.35;1.98;;;11.90;99.90;;;;;;5049193;28;20037;-74
2022/07/28 00:19:54;;;;;;;3.40;1.90;;;11.80;99.90;;;;;;5041001;28;20088;-73
2022/07/28 00:22:19;;;;;;;7.25;2.20;;;11.90;99.90;;;;;;5046406;28;20032;-73
2022/07/28 00:24:45;;;;;;;5.45;2.00;;;11.80;99.90;;;;;;5040752;28;20076;-73
2022/07/28 00:27:12;;;;;;;4.68;2.20;;;11.90;99.90;;;;;;5047606;28;20170;-74
2022/07/28 00:29:38;;;;;;;4.57;2.28;;;11.90;99.90;;;;;;5048253;28;20045;-73
2022/07/28 00:32:04;;;;;;;2.85;1.88;;;11.90;99.90;;;;;;5048290;28;20049;-74
2022/07/28 00:34:30;;;;;;;5.00;2.33;;;11.90;99.90;;;;;;5046974;28;20049;-73
2022/07/28 00:36:55;;;;;;;4.03;2.15;;;11.90;99.90;;;;;;5049073;28;20059;-74
2022/07/28 00:39:21;;;;;;;5.10;2.00;;;11.90;99.90;;;;;;5041843;28;20068;-73
2022/07/28 00:41:47;;;;;;;5.90;2.08;;;11.90;99.90;;;;;;5041948;28;20033;-73
2022/07/28 00:44:12;;;;;;;5.88;2.22;;;11.90;99.90;;;;;;5043446;28;20037;-73
2022/07/28 00:46:38;;;;;;;5.72;2.20;;;11.80;99.90;;;;;;5044474;28;20115;-73
2022/07/28 00:49:04;;;;;;;5.55;2.10;;;11.80;99.90;;;;;;5041351;28;20139;-73
2022/07/28 00:51:30;;;;;;;3.38;1.98;;;11.80;99.90;;;;;;5049251;28;20080;-74
2022/07/28 00:53:56;;;;;;;3.60;1.52;;;11.80;99.90;;;;;;5050058;28;20041;-74
2022/07/28 00:56:22;;;;;;;3.20;1.58;;;11.80;99.90;;;;;;5046625;28;20055;-73
2022/07/28 00:58:48;;;;;;;4.10;1.67;;;11.70;99.90;;;;;;5041832;28;20044;-74
2022/07/28 01:01:18;;;;;;;2.67;1.50;;;11.70;99.90;;;;;;5047554;28;20048;-74
2022/07/28 01:03:53;;;;;;;2.85;1.45;;;11.70;99.90;;;;;;5037161;28;20084;-74
2022/07/28 01:06:38;;;;;;;2.72;1.75;;;11.70;99.90;;;;;;5043789;28;20101;-74
2022/07/28 01:09:16;;;;;;;6.07;2.17;;;11.70;99.90;;;;;;5039516;28;20041;-74
2022/07/28 01:11:51;;;;;;;8.15;2.15;;;11.80;99.90;;;;;;5044029;28;20041;-74
2022/07/28 01:14:29;;;;;;;3.28;2.05;;;11.80;99.90;;;;;;5049290;28;20044;-73
2022/07/28 01:17:18;;;;;;;2.80;1.90;;;11.80;99.90;;;;;;5036806;28;20117;-73
2022/07/28 01:20:27;;;;;;;5.25;1.80;;;11.80;99.90;;;;;;5046479;28;20045;-73
2022/07/28 01:23:11;;;;;;;2.33;1.70;;;11.80;99.90;;;;;;5043367;28;20049;-73
2022/07/28 01:25:49;;;;;;;1.42;1.33;;;11.80;99.90;;;;;;5037008;28;20044;-73
2022/07/28 01:28:23;;;;;;;1.33;1.20;;;11.70;99.90;;;;;;5045302;28;20487;-73
2022/07/28 01:30:55;;;;;;;2.15;1.42;;;11.60;99.90;;;;;;5045374;28;20045;-73
2022/07/28 01:33:28;;;;;;;1.90;1.40;;;11.50;99.90;;;;;;5048099;28;20523;-73
2022/07/28 01:36:01;;;;;;;3.60;2.08;;;11.50;99.90;;;;;;5047052;28;20044;-73
2022/07/28 01:38:30;;;;;;;1.70;1.60;;;11.50;99.90;;;;;;5047643;28;20052;-73
2022/07/28 01:40:58;;;;;;;2.40;1.90;;;11.50;99.90;;;;;;5040577;28;20038;-73
2022/07/28 01:43:25;;;;;;;5.00;1.90;;;11.50;99.90;;;;;;5041187;28;20118;-73
2022/07/28 01:45:54;;;;;;;4.70;1.83;;;11.50;99.90;;;;;;5042001;28;20041;-73
2022/07/28 01:48:22;;;;;;;2.65;1.80;;;11.50;99.90;;;;;;5054226;28;20036;-73
2022/07/28 01:50:50;;;;;;;3.65;1.60;;;11.50;99.90;;;;;;5034322;28;20041;-74
2022/07/28 01:53:17;;;;;;;6.72;1.95;;;11.50;99.90;;;;;;5048116;28;20037;-73
2022/07/28 01:55:45;;;;;;;1.75;1.63;;;11.60;99.90;;;;;;5045996;28;20037;-73
2022/07/28 01:58:12;;;;;;;4.60;1.85;;;11.60;99.90;;;;;;5045852;28;20433;-73
2022/07/28 02:00:40;;;;;;;4.60;1.90;;;11.60;99.90;;;;;;5047024;28;20041;-73
2022/07/28 02:03:09;;;;;;;1.33;1.10;;;11.60;99.90;;;;;;5041236;28;20052;-73
2022/07/28 02:05:36;;;;;;;1.75;1.50;;;11.50;99.90;;;;;;5033176;28;20042;-73
2022/07/28 02:08:03;;;;;;;4.80;1.90;;;11.50;99.90;;;;;;5034791;28;20049;-74
2022/07/28 02:10:30;;;;;;;3.90;2.08;;;11.50;99.90;;;;;;5046315;28;20045;-73
2022/07/28 02:12:59;;;;;;;3.90;2.00;;;11.50;99.90;;;;;;5044613;28;20029;-73
2022/07/28 02:15:26;;;;;;;2.80;1.98;;;11.50;99.90;;;;;;5039899;28;20041;-73
2022/07/28 02:17:53;;;;;;;4.28;1.92;;;11.50;99.90;;;;;;5048101;28;20037;-73
2022/07/28 02:20:21;;;;;;;3.78;2.20;;;11.50;99.90;;;;;;5046597;28;20106;-73
2022/07/28 02:22:47;;;;;;;3.22;2.25;;;11.50;99.90;;;;;;5045899;28;20033;-73
2022/07/28 02:25:13;;;;;;;3.50;2.08;;;11.50;99.90;;;;;;5037834;28;20045;-73
2022/07/28 02:27:45;;;;;;;6.03;2.40;;;11.50;99.90;;;;;;5044632;28;20480;-73
2022/07/28 02:30:16;;;;;;;4.25;2.53;;;11.50;99.90;;;;;;5041857;28;20048;-73
2022/07/28 02:32:55;;;;;;;5.60;2.50;;;11.50;99.90;;;;;;5046535;28;20100;-73
2022/07/28 02:35:31;;;;;;;2.95;2.30;;;11.50;99.90;;;;;;5036934;28;20052;-73
2022/07/28 02:38:00;;;;;;;4.80;2.60;;;11.50;99.90;;;;;;5044142;28;20037;-73
2022/07/28 02:40:40;;;;;;;4.60;2.70;;;11.50;99.90;;;;;;5047635;28;20044;-73
2022/07/28 02:43:19;;;;;;;5.15;2.63;;;11.50;99.90;;;;;;5038908;28;20045;-73
2022/07/28 02:45:51;;;;;;;2.83;2.50;;;11.40;99.90;;;;;;5038122;28;20065;-73
2022/07/28 02:48:21;;;;;;;4.05;2.67;;;11.40;99.90;;;;;;5045938;28;20048;-73
2022/07/28 02:50:48;;;;;;;3.25;2.33;;;11.40;99.90;;;;;;5047781;28;20162;-73
2022/07/28 02:53:15;;;;;;;3.97;2.60;;;11.40;99.90;;;;;;5046427;28;20068;-73
2022/07/28 02:55:42;;;;;;;5.45;2.75;;;11.30;99.90;;;;;;5027603;28;20056;-73
2022/07/28 02:58:09;;;;;;;4.93;2.67;;;11.30;99.90;;;;;;5048651;28;20041;-73
2022/07/28 03:00:36;;;;;;;6.63;2.97;;;11.30;99.90;;;;;;5043215;28;20091;-73
2022/07/28 03:03:03;;;;;;;4.28;2.83;;;11.30;99.90;;;;;;5047200;28;20064;-73
2022/07/28 03:05:29;;;;;;;3.42;2.60;;;11.30;99.90;;;;;;5042886;28;20076;-73
2022/07/28 03:07:57;;;;;;;3.55;2.35;;;11.30;99.90;;;;;;5044438;28;20061;-73
2022/07/28 03:10:25;;;;;;;4.07;2.70;;;11.30;99.90;;;;;;5041493;28;20052;-73
2022/07/28 03:12:52;;;;;;;4.32;2.38;;;11.20;99.90;;;;;;5046433;28;20067;-73
2022/07/28 03:15:18;;;;;;;7.55;2.47;;;11.20;99.90;;;;;;5039717;28;20091;-73
2022/07/28 03:17:44;;;;;;;3.75;2.50;;;11.20;99.90;;;;;;5041337;28;20666;-73
2022/07/28 03:20:11;;;;;;;3.03;2.40;;;11.20;99.90;;;;;;5038085;28;20083;-73
2022/07/28 03:22:37;;;;;;;5.00;2.60;;;11.20;99.90;;;;;;5055494;28;20067;-73
2022/07/28 03:25:17;;;;;;;3.63;2.53;;;11.20;99.90;;;;;;5049407;28;20041;-73
2022/07/28 03:27:47;;;;;;;4.13;2.80;;;11.10;99.90;;;;;;5044187;28;20094;-73
2022/07/28 03:30:23;;;;;;;6.18;3.08;;;11.20;99.90;;;;;;5046960;28;20049;-73
2022/07/28 03:33:00;;;;;;;4.32;2.78;;;11.10;99.90;;;;;;5045466;28;20087;-73
2022/07/28 03:35:27;;;;;;;3.83;2.90;;;11.10;99.90;;;;;;5050093;28;20044;-74
2022/07/28 03:38:13;;;;;;;7.60;3.38;;;11.00;99.90;;;;;;5042553;28;20175;-73
2022/07/28 03:40:41;;;;;;;6.70;3.17;;;11.10;99.90;;;;;;5041519;28;20040;-74
2022/07/28 03:43:09;;;;;;;4.88;2.85;;;11.00;99.90;;;;;;5045563;28;20041;-73
2022/07/28 03:45:36;;;;;;;4.63;2.70;;;11.00;99.90;;;;;;5034705;28;20044;-73
2022/07/28 03:48:02;;;;;;;4.30;2.72;;;11.00;99.90;;;;;;5036769;28;20043;-73
2022/07/28 03:50:30;;;;;;;4.15;2.95;;;11.00;99.90;;;;;;5036181;28;20052;-74
2022/07/28 03:52:58;;;;;;;3.10;2.80;;;11.00;99.90;;;;;;5046913;28;20096;-73
2022/07/28 03:55:24;;;;;;;3.53;2.83;;;10.90;99.90;;;;;;5042634;28;20045;-74
2022/07/28 03:57:50;;;;;;;4.07;2.60;;;11.00;99.90;;;;;;5051690;28;20186;-74
2022/07/28 04:00:17;;;;;;;7.38;3.00;;;11.00;99.90;;;;;;5040408;28;20562;-74
2022/07/28 04:02:44;;;;;;;5.03;3.05;;;10.90;99.90;;;;;;5046060;28;20124;-74
2022/07/28 04:05:15;;;;;;;4.45;3.00;;;10.90;99.90;;;;;;5045326;28;20048;-74
2022/07/28 04:07:41;;;;;;;6.38;2.60;;;10.90;99.90;;;;;;5044009;28;20049;-74
2022/07/28 04:10:09;;;;;;;4.97;2.80;;;10.90;99.90;;;;;;5039276;28;20411;-73
2022/07/28 04:12:52;;;;;;;3.97;2.60;;;10.90;99.90;;;;;;5047741;28;20045;-73
2022/07/28 04:15:18;;;;;;;2.70;2.45;;;10.90;99.90;;;;;;5043670;28;20033;-74
2022/07/28 04:17:47;;;;;;;4.50;2.65;;;10.90;99.90;;;;;;5047812;28;20048;-74
2022/07/28 04:20:13;;;;;;;2.78;2.33;;;10.90;99.90;;;;;;5041264;28;20102;-74
2022/07/28 04:22:39;;;;;;;3.20;2.58;;;10.90;99.90;;;;;;5045845;28;20037;-74
2022/07/28 04:25:06;;;;;;;5.00;2.70;;;10.90;99.90;;;;;;5046560;28;20041;-74
2022/07/28 04:27:35;;;;;;;5.38;2.63;;;10.90;99.90;;;;;;5044264;28;20037;-74
2022/07/28 04:30:08;;;;;;;3.15;2.40;;;10.90;99.90;;;;;;5054942;28;20094;-74
2022/07/28 04:32:34;;;;;;;3.20;2.40;;;10.90;99.90;;;;;;5045364;28;20041;-74
2022/07/28 04:34:59;;;;;;;4.25;2.83;;;10.90;99.90;;;;;;5046318;28;20395;-74
2022/07/28 04:37:26;;;;;;;2.97;2.67;;;10.80;99.90;;;;;;5049598;28;20060;-74
2022/07/28 04:39:51;;;;;;;3.35;2.58;;;10.80;99.90;;;;;;5042305;28;20061;-74
2022/07/28 04:42:17;;;;;;;3.15;2.83;;;10.80;99.90;;;;;;5043910;28;20095;-73
2022/07/28 04:44:44;;;;;;;3.22;2.70;;;10.80;99.90;;;;;;5052585;28;20094;-74
2022/07/28 04:47:12;;;;;;;3.13;2.75;;;10.80;99.90;;;;;;5036367;28;20071;-74
2022/07/28 04:49:41;;;;;;;3.40;2.47;;;10.80;99.90;;;;;;5041129;28;20418;-74
2022/07/28 04:52:07;;;;;;;3.65;2.45;;;10.90;99.90;;;;;;5043546;28;20046;-74
2022/07/28 04:54:33;;;;;;;3.88;2.55;;;10.90;99.90;;;;;;5037348;28;20052;-74
2022/07/28 04:56:59;;;;;;;2.75;2.50;;;10.90;99.90;;;;;;5037370;28;20041;-74
2022/07/28 04:59:25;;;;;;;6.25;2.60;;;10.90;99.90;;;;;;5045774;28;20131;-74
2022/07/28 05:01:51;;;;;;;3.85;2.80;;;10.90;99.90;;;;;;5046599;28;20080;-73
2022/07/28 05:04:17;;;;;;;5.93;2.60;;;10.90;99.90;;;;;;5045799;28;20049;-74
2022/07/28 05:06:43;;;;;;;3.80;2.75;;;11.00;99.90;;;;;;5063470;28;20041;-74
2022/07/28 05:09:09;;;;;;;5.53;2.67;;;11.10;99.90;;;;;;5016534;28;20079;-74
2022/07/28 05:11:35;;;;;;;3.55;2.75;;;11.00;99.90;;;;;;5047811;28;20064;-74
2022/07/28 05:14:01;;;;;;;3.08;2.78;;;11.10;99.90;;;;;;5049149;28;20045;-74
2022/07/28 05:16:26;;;;;;;6.10;3.05;;;11.10;99.90;;;;;;5046833;28;20052;-74
2022/07/28 05:18:52;;;;;;;6.57;2.60;;;11.20;99.90;;;;;;5036452;28;20038;-74
2022/07/28 05:21:18;;;;;;;3.08;2.78;;;11.20;99.90;;;;;;5046959;28;20124;-74
2022/07/28 05:23:43;;;;;;;5.05;2.85;;;11.20;99.90;;;;;;5040496;28;20033;-74
2022/07/28 05:26:09;;;;;;;4.28;2.80;;;11.30;99.90;;;;;;5042134;28;20051;-73
2022/07/28 05:28:35;;;;;;;3.92;2.97;;;11.40;99.90;;;;;;5043020;28;20044;-74
2022/07/28 05:31:00;;;;;;;3.55;2.80;;;11.50;99.90;;;;;;5038426;28;20051;-74
2022/07/28 05:33:26;;;;;;;4.13;3.05;;;11.50;99.90;;;;;;5039028;28;20116;-74
2022/07/28 05:35:56;;;;;;;3.47;2.70;;;11.70;99.90;;;;;;5038610;28;20030;-74
2022/07/28 05:38:22;;;;;;;2.70;2.50;;;11.80;99.90;;;;;;5034730;28;20032;-74
2022/07/28 05:40:48;;;;;;;3.50;2.47;;;11.90;99.90;;;;;;5060722;28;20041;-74
2022/07/28 05:43:14;;;;;;;3.58;3.00;;;12.00;99.90;;;;;;5035987;28;20045;-74
2022/07/28 05:45:40;;;;;;;2.92;2.45;;;12.10;99.90;;;;;;5044595;28;20064;-74
2022/07/28 05:48:05;;;;;;;5.28;3.33;;;12.10;99.90;;;;;;5039348;28;20060;-74
2022/07/28 05:50:31;;;;;;;5.07;2.67;;;12.20;99.90;;;;;;5044875;28;20045;-74
2022/07/28 05:52:57;;;;;;;4.38;2.53;;;12.30;99.90;;;;;;5046400;28;20090;-75
2022/07/28 05:55:22;;;;;;;6.90;2.90;;;12.40;99.90;;;;;;5042188;28;20048;-75
2022/07/28 05:57:49;;;;;;;6.22;2.53;;;12.50;99.90;;;;;;5054303;28;20052;-75
2022/07/28 06:00:18;;;;;;;3.60;2.55;;;12.70;99.90;;;;;;5043114;28;20036;-75
2022/07/28 06:02:46;;;;;;;5.05;2.90;;;12.80;99.90;;;;;;5039632;28;20095;-75
2022/07/28 06:05:12;;;;;;;4.85;2.97;;;12.80;99.90;;;;;;5032039;28;20053;-76
2022/07/28 06:07:38;;;;;;;4.85;2.80;;;13.00;99.90;;;;;;5039737;28;20090;-73
2022/07/28 06:10:04;;;;;;;6.22;2.80;;;13.10;99.90;;;;;;5036381;28;20045;-73
2022/07/28 06:12:30;;;;;;;4.78;3.05;;;13.30;99.90;;;;;;5042673;28;20088;-73
2022/07/28 06:14:55;;;;;;;4.70;3.10;;;13.50;99.90;;;;;;5043892;28;20072;-73
2022/07/28 06:17:21;;;;;;;6.72;2.78;;;13.60;99.90;;;;;;5034735;28;20033;-73
2022/07/28 06:19:47;;;;;;;8.65;3.03;;;13.80;99.90;;;;;;5038778;28;20037;-73
2022/07/28 06:22:14;;;;;;;10.27;2.67;;;14.00;99.90;;;;;;5035244;28;20038;-73
2022/07/28 06:24:40;;;;;;;6.25;2.13;;;14.20;99.90;;;;;;5046463;28;20116;-73
2022/07/28 06:27:06;;;;;;;4.53;2.20;;;14.40;99.90;;;;;;5045509;28;20503;-73
2022/07/28 06:29:32;;;;;;;5.15;2.13;;;14.50;99.90;;;;;;5046743;28;20049;-73
2022/07/28 06:31:57;;;;;;;11.98;2.58;;;14.60;99.90;;;;;;5040345;28;20073;-74
2022/07/28 06:34:23;;;;;;;6.72;2.00;;;14.80;99.90;;;;;;5043697;28;20037;-73
2022/07/28 06:36:49;;;;;;;8.18;2.05;;;14.80;99.90;;;;;;5038328;28;20041;-73
2022/07/28 06:39:14;;;;;;;7.85;2.08;;;14.90;99.90;;;;;;5045894;28;20033;-73
2022/07/28 06:41:42;;;;;;;4.35;2.00;;;15.00;99.90;;;;;;5044788;28;20083;-73
2022/07/28 06:44:08;;;;;;;6.20;2.22;;;15.20;99.90;;;;;;5041539;28;20487;-73
2022/07/28 06:46:34;;;;;;;6.35;1.98;;;15.30;99.90;;;;;;5044476;28;20036;-73
2022/07/28 06:49:00;;;;;;;5.47;1.98;;;15.40;99.90;;;;;;5048808;28;20191;-74
2022/07/28 06:51:26;;;;;;;4.53;1.92;;;15.50;99.90;;;;;;5047965;28;20207;-73
2022/07/28 06:53:52;;;;;;;3.97;1.88;;;15.60;99.90;;;;;;5043541;28;20551;-73
2022/07/28 06:56:18;;;;;;;4.53;2.17;;;15.70;99.90;;;;;;5038489;28;20386;-73
2022/07/28 06:58:44;;;;;;;6.25;1.98;;;15.70;99.90;;;;;;5047030;28;20403;-73
2022/07/28 07:01:11;;;;;;;7.05;1.80;;;15.80;99.90;;;;;;5047035;28;20039;-73
2022/07/28 07:03:37;;;;;;;3.95;1.75;;;15.90;99.90;;;;;;5045575;28;20399;-74
2022/07/28 07:06:02;;;;;;;4.85;1.80;;;16.00;99.90;;;;;;5045835;28;20036;-74
2022/07/28 07:08:28;;;;;;;6.43;1.80;;;16.10;99.90;;;;;;5050690;28;20036;-73
2022/07/28 07:10:54;;;;;;;4.60;1.88;;;16.20;99.90;;;;;;5052651;28;20033;-74
2022/07/28 07:13:19;;;;;;;7.43;1.60;;;16.20;99.90;;;;;;5045156;28;20047;-73
2022/07/28 07:15:45;;;;;;;8.65;1.95;;;16.30;99.90;;;;;;5062676;28;20087;-73
2022/07/28 07:18:11;;;;;;;5.45;1.48;;;16.40;99.90;;;;;;5045181;28;20029;-73
2022/07/28 07:20:36;;;;;;;5.10;1.58;;;16.40;99.90;;;;;;5043409;28;20037;-73
2022/07/28 07:23:02;;;;;;;5.50;1.90;;;16.50;99.90;;;;;;5045078;28;20076;-73
2022/07/28 07:25:27;;;;;;;6.78;1.42;;;16.50;99.90;;;;;;5024608;28;20044;-73
2022/07/28 07:27:53;;;;;;;4.72;1.50;;;16.50;99.90;;;;;;5042424;28;20059;-73
2022/07/28 07:30:37;;;;;;;4.90;1.25;;;16.60;99.90;;;;;;5043415;28;20050;-73
2022/07/28 07:33:23;;;;;;;5.60;1.52;;;16.60;99.90;;;;;;5046233;28;20494;-73
2022/07/28 07:36:09;;;;;;;5.18;1.40;;;16.70;99.90;;;;;;5047650;28;20521;-73
2022/07/28 07:38:55;;;;;;;8.30;1.40;;;16.80;99.90;;;;;;5042921;28;20049;-73
2022/07/28 07:41:21;;;;;;;3.92;1.30;;;16.90;99.90;;;;;;5046368;28;20497;-74
2022/07/28 07:43:47;;;;;;;3.47;1.08;;;17.10;99.90;;;;;;5048108;28;20052;-74
2022/07/28 07:46:13;;;;;;;4.00;1.20;;;17.10;99.90;;;;;;5043936;28;20055;-74
2022/07/28 07:48:39;;;;;;;4.43;1.25;;;17.20;99.90;;;;;;5044947;28;20672;-74
2022/07/28 07:51:04;;;;;;;5.35;1.30;;;17.30;99.90;;;;;;5043680;28;20044;-74
2022/07/28 07:53:30;;;;;;;5.00;1.23;;;17.30;99.90;;;;;;5045780;28;20053;-73
2022/07/28 07:55:56;;;;;;;2.30;0.82;;;17.30;99.90;;;;;;5046162;28;20043;-74
2022/07/28 07:58:22;;;;;;;2.33;0.93;;;17.30;99.90;;;;;;5046020;28;20398;-73
2022/07/28 08:00:48;;;;;;;4.78;1.10;;;17.40;99.90;;;;;;5043594;28;20036;-73
2022/07/28 08:03:15;;;;;;;5.97;1.23;;;17.60;99.90;;;;;;5045939;28;20040;-74
2022/07/28 08:05:41;;;;;;;4.38;1.20;;;17.70;99.90;;;;;;5044197;28;20045;-73
2022/07/28 08:08:07;;;;;;;3.40;1.08;;;17.90;99.90;;;;;;5047181;28;20087;-73
2022/07/28 08:10:34;;;;;;;4.78;1.30;;;18.10;99.90;;;;;;5044507;28;20053;-73
2022/07/28 08:13:00;;;;;;;6.03;1.10;;;18.30;99.90;;;;;;5047436;28;20155;-74
2022/07/28 08:15:25;;;;;;;3.20;1.23;;;18.50;99.90;;;;;;5045027;28;20061;-73
2022/07/28 08:17:51;;;;;;;3.55;1.02;;;18.60;99.90;;;;;;5045873;28;20033;-73
2022/07/28 08:20:17;;;;;;;5.97;1.15;;;18.70;99.90;;;;;;5042671;28;20036;-74
2022/07/28 08:22:49;;;;;;;2.33;1.00;;;18.90;99.90;;;;;;5041883;28;20071;-73
2022/07/28 08:25:16;;;;;;;4.28;0.82;;;19.10;99.90;;;;;;5044981;28;20045;-73
2022/07/28 08:27:42;;;;;;;5.15;1.20;;;19.30;99.90;;;;;;5044007;28;20045;-73
2022/07/28 08:30:08;;;;;;;4.25;1.00;;;19.40;99.90;;;;;;5043338;28;20132;-73
2022/07/28 08:32:34;;;;;;;3.33;1.15;;;19.30;99.90;;;;;;5044628;28;20044;-74
2022/07/28 08:35:00;;;;;;;4.00;1.05;;;19.30;99.90;;;;;;5045444;28;20041;-74
2022/07/28 08:37:26;;;;;;;2.90;1.10;;;19.20;99.90;;;;;;5043217;28;20045;-74
2022/07/28 08:39:51;;;;;;;4.38;1.30;;;19.30;99.90;;;;;;5042409;28;20106;-73
2022/07/28 08:42:25;;;;;;;8.30;1.33;;;19.50;99.90;;;;;;5043783;28;20045;-73
2022/07/28 08:44:57;;;;;;;3.67;0.90;;;19.80;99.90;;;;;;5023253;28;20045;-73
2022/07/28 08:47:26;;;;;;;3.03;0.90;;;19.80;99.90;;;;;;5045587;28;20037;-72
2022/07/28 08:49:54;;;;;;;2.47;0.73;;;19.80;99.90;;;;;;5044954;28;20072;-74
2022/07/28 08:52:22;;;;;;;3.00;0.77;;;19.70;99.90;;;;;;5061665;28;20051;-71
2022/07/28 08:54:49;;;;;;;3.05;0.90;;;19.60;99.90;;;;;;5030001;28;20037;-73
2022/07/28 08:57:40;;;;;;;2.03;0.90;;;19.60;99.90;;;;;;5028263;28;20037;-74
2022/07/28 09:00:10;;;;;;;2.05;0.90;;;19.50;99.90;;;;;;5036585;28;20202;-74
2022/07/28 09:02:39;;;;;;;3.78;1.13;;;19.50;99.90;;;;;;5044952;28;20040;-74
2022/07/28 09:05:06;;;;;;;1.70;0.80;;;19.60;99.90;;;;;;5044584;28;20048;-72
2022/07/28 09:07:36;;;;;;;3.33;0.90;;;19.60;99.90;;;;;;5042989;28;20040;-73
2022/07/28 09:10:04;;;;;;;3.35;1.00;;;19.60;99.60;;;;;;5043434;28;20095;-74
2022/07/28 09:12:33;;;;;;;2.78;0.90;;;19.50;98.60;;;;;;5044663;28;20055;-73
2022/07/28 09:15:07;;;;;;;1.23;0.90;;;19.60;98.50;;;;;;5042008;28;20044;-73
2022/07/28 09:17:34;;;;;;;2.75;1.10;;;19.60;98.90;;;;;;5044834;28;20055;-74
2022/07/28 09:20:00;;;;;;;3.45;1.10;;;19.70;98.10;;;;;;5040047;28;20040;-73
2022/07/28 09:22:26;;;;;;;5.00;0.90;;;19.80;99.20;;;;;;5043033;28;20037;-73
2022/07/28 09:24:52;;;;;;;3.80;0.95;;;20.00;99.90;;;;;;5043312;28;20051;-73
2022/07/28 09:27:19;;;;;;;4.50;1.08;;;20.10;98.40;;;;;;5038841;28;20398;-74
2022/07/28 09:29:48;;;;;;;2.83;0.90;;;20.20;98.40;;;;;;5038576;28;20043;-74
2022/07/28 09:32:15;;;;;;;6.72;0.90;;;20.50;98.80;;;;;;5041493;28;20049;-74
2022/07/28 09:34:49;;;;;;;1.80;0.90;;;20.70;97.40;;;;;;5029222;28;20094;-73
2022/07/28 09:37:21;;;;;;;2.25;0.95;;;20.80;95.80;;;;;;5038862;28;20073;-73
2022/07/28 09:39:49;;;;;;;2.28;0.98;;;20.70;95.20;;;;;;5036869;28;20036;-73
2022/07/28 09:42:17;;;;;;;3.17;1.30;;;20.60;94.50;;;;;;5036390;28;20049;-73
2022/07/28 09:44:44;;;;;;;2.22;0.93;;;20.50;95.50;;;;;;5050048;28;20041;-73
2022/07/28 09:47:25;;;;;;;1.85;0.90;;;20.40;95.40;;;;;;5047060;28;20048;-73
2022/07/28 09:49:52;;;;;;;2.77;1.00;;;20.30;95.00;;;;;;5045036;28;20048;-73
2022/07/28 09:52:35;;;;;;;2.70;0.90;;;20.30;95.60;;;;;;5042140;28;20037;-73
2022/07/28 09:55:10;;;;;;;2.90;1.00;;;20.40;94.50;;;;;;5041938;28;20045;-74
2022/07/28 09:57:39;;;;;;;2.35;0.80;;;20.60;95.20;;;;;;5039721;28;20442;-73
2022/07/28 10:00:08;;;;;;;2.80;1.00;;;20.80;93.80;;;;;;5066029;28;20040;-74
2022/07/28 10:02:35;;;;;;;3.35;1.02;;;20.90;93.10;;;;;;5033653;28;20037;-73
2022/07/28 10:05:01;;;;;;;4.03;1.10;;;21.00;91.90;;;;;;5040232;28;20076;-72
2022/07/28 10:07:28;;;;;;;3.53;0.90;;;21.00;93.20;;;;;;5046843;28;20076;-78
2022/07/28 10:10:04;;;;;;;4.18;1.08;;;21.10;93.90;;;;;;5044585;28;20110;-78
2022/07/28 10:12:33;;;;;;;3.55;0.82;;;21.20;92.60;;;;;;5044497;28;20049;-78
2022/07/28 10:18:05;;;;;;;2.60;1.10;;;21.20;92.00;;;;;;5050442;28;20045;-77
2022/07/28 10:20:31;;;;;;;2.00;0.80;;;21.40;92.70;;;;;;5047819;28;20029;-78
2022/07/28 10:23:02;;;;;;;4.03;0.93;;;21.50;93.20;;;;;;5026034;28;20029;-78
2022/07/28 10:25:31;;;;;;;3.88;1.13;;;21.60;94.90;;;;;;5041685;28;20045;-76
2022/07/28 10:27:59;;;;;;;2.50;0.70;;;21.70;94.40;;;;;;5039243;28;20565;-77
2022/07/28 10:30:33;;;;;;;4.32;1.10;;;21.70;93.60;;;;;;5027064;28;20163;-77
2022/07/28 10:33:03;;;;;;;4.40;1.02;;;21.70;94.00;;;;;;5036241;28;20037;-77
2022/07/28 10:35:31;;;;;;;5.57;1.02;;;21.70;91.70;;;;;;5043147;28;20068;-78
2022/07/28 10:38:03;;;;;;;2.38;1.02;;;21.80;91.10;;;;;;5031601;28;20899;-78
2022/07/28 10:40:34;;;;;;;2.85;1.00;;;21.80;91.20;;;;;;5049424;28;20506;-77
2022/07/28 10:43:00;;;;;;;3.15;1.00;;;21.80;90.40;;;;;;5064203;28;20548;-76
2022/07/28 10:45:26;;;;;;;1.92;0.90;;;21.80;90.60;;;;;;5047111;28;20048;-78
2022/07/28 10:47:53;;;;;;;4.43;0.88;;;22.00;91.10;;;;;;5043929;28;20703;-78
2022/07/28 10:50:20;;;;;;;1.60;0.80;;;22.10;91.20;;;;;;5046911;28;20038;-77
2022/07/28 10:52:47;;;;;;;2.83;0.93;;;22.20;90.20;;;;;;5033064;28;20040;-78
2022/07/28 10:55:18;;;;;;;5.32;0.80;;;22.40;89.90;;;;;;5048053;28;20559;-78
2022/07/28 10:58:09;;;;;;;4.75;0.90;;;22.50;89.50;;;;;;5050654;28;20040;-78
2022/07/28 11:00:46;;;;;;;3.45;0.90;;;22.70;89.20;;;;;;5031474;28;20034;-78
2022/07/28 11:03:36;;;;;;;4.47;1.00;;;22.70;86.50;;;;;;5047495;28;20070;-77
2022/07/28 11:06:32;;;;;;;2.13;0.90;;;22.70;83.00;;;;;;5064389;28;20125;-78
2022/07/28 11:09:16;;;;;;;4.57;0.88;;;22.70;84.70;;;;;;5048937;28;20041;-77
2022/07/28 11:11:49;;;;;;;3.75;0.80;;;22.60;86.80;;;;;;5047528;28;20072;-77
2022/07/28 11:14:24;;;;;;;4.72;0.82;;;22.70;86.50;;;;;;5051798;28;20045;-79
2022/07/28 11:17:11;;;;;;;1.73;0.90;;;22.70;87.10;;;;;;5045673;28;20045;-78
2022/07/28 11:19:42;;;;;;;4.50;0.95;;;22.70;80.20;;;;;;5054344;28;20037;-78
2022/07/28 11:22:14;;;;;;;1.50;0.80;;;22.70;79.70;;;;;;5048335;28;20041;-78
2022/07/28 11:24:55;;;;;;;1.65;0.82;;;22.70;80.20;;;;;;5046496;28;20503;-78
2022/07/28 11:27:40;;;;;;;2.70;0.80;;;22.70;82.60;;;;;;5066389;28;20075;-79
2022/07/28 11:30:10;;;;;;;3.60;0.90;;;22.80;82.80;;;;;;5048310;28;20044;-79
2022/07/28 11:32:53;;;;;;;3.15;1.00;;;22.70;82.60;;;;;;5032696;28;20045;-80
2022/07/28 11:35:27;;;;;;;2.38;0.70;;;22.70;84.50;;;;;;5041192;28;20045;-78
2022/07/28 11:38:02;;;;;;;2.90;0.90;;;22.70;82.80;;;;;;5047965;28;20120;-78
2022/07/28 11:40:42;;;;;;;4.95;1.00;;;22.90;84.10;;;;;;5028293;28;20044;-79
2022/07/28 11:43:24;;;;;;;2.55;0.90;;;23.10;80.20;;;;;;5042392;28;20529;-78
2022/07/28 11:46:10;;;;;;;4.80;1.05;;;23.40;84.10;;;;;;5048445;28;20048;-77
2022/07/28 11:48:38;;;;;;;3.05;0.80;;;23.60;81.40;;;;;;5030901;28;20041;-79
2022/07/28 11:51:03;;;;;;;4.82;1.20;;;23.70;78.70;;;;;;5029943;28;20033;-79
2022/07/28 11:53:50;;;;;;;3.20;0.90;;;23.60;76.30;;;;;;5051121;28;20095;-78
2022/07/28 11:56:34;;;;;;;1.98;0.60;;;23.50;75.50;;;;;;5051395;28;20045;-79
2022/07/28 11:59:03;;;;;;;3.58;0.80;;;23.50;75.60;;;;;;5041424;28;20566;-79
2022/07/28 12:01:30;;;;;;;5.95;0.90;;;23.80;74.30;;;;;;5043439;28;20135;-79
2022/07/28 12:03:57;;;;;;;4.45;1.00;;;23.90;72.60;;;;;;5064465;28;20044;-78
2022/07/28 12:06:24;;;;;;;2.63;1.20;;;24.20;72.70;;;;;;5049426;28;20441;-78
2022/07/28 12:08:57;;;;;;;4.38;0.95;;;24.30;74.60;;;;;;5031356;28;20048;-79
2022/07/28 12:11:24;;;;;;;6.72;1.30;;;24.50;73.10;;;;;;5046988;28;20040;-78
2022/07/28 12:14:07;;;;;;;2.35;0.82;;;24.60;72.50;;;;;;5046647;28;20049;-78
2022/07/28 12:16:35;;;;;;;1.85;0.85;;;24.60;70.20;;;;;;5044627;28;20084;-78
2022/07/28 12:19:02;;;;;;;3.42;0.80;;;24.50;68.30;;;;;;5029472;28;20049;-78
2022/07/28 12:21:38;;;;;;;11.43;1.30;;;24.20;67.20;;;;;;5041217;28;20379;-79
2022/07/28 12:24:05;;;;;;;3.60;1.13;;;24.10;67.10;;;;;;5039705;28;20060;-72
2022/07/28 12:26:32;;;;;;;4.18;0.90;;;24.00;68.40;;;;;;5043575;28;20099;-73
2022/07/28 12:28:59;;;;;;;3.95;1.08;;;24.20;70.10;;;;;;5042876;28;20040;-72
2022/07/28 12:31:28;;;;;;;3.80;1.00;;;24.60;71.30;;;;;;5042337;28;20094;-74
2022/07/28 12:33:55;;;;;;;1.65;0.65;;;24.90;70.10;;;;;;5036732;28;20039;-72
2022/07/28 12:36:23;;;;;;;3.53;0.95;;;25.00;65.20;;;;;;5043284;28;20052;-72
2022/07/28 12:38:52;;;;;;;3.60;1.08;;;25.00;65.00;;;;;;5037006;28;20228;-73
2022/07/28 12:41:19;;;;;;;2.30;0.90;;;25.00;67.70;;;;;;5046232;28;20064;-72
2022/07/28 12:43:49;;;;;;;2.25;0.70;;;25.00;67.90;;;;;;5051994;28;20037;-73
2022/07/28 12:46:24;;;;;;;4.70;0.95;;;24.90;66.00;;;;;;5037220;28;20037;-73
2022/07/28 12:48:51;;;;;;;1.85;0.77;;;24.70;66.30;;;;;;5041400;28;20122;-73
2022/07/28 12:51:34;;;;;;;3.20;0.90;;;24.60;68.10;;;;;;5051694;28;20045;-73
2022/07/28 12:54:01;;;;;;;2.58;0.93;;;24.50;69.20;;;;;;5050686;28;20045;-73
2022/07/28 12:56:26;;;;;;;4.72;1.00;;;24.40;67.60;;;;;;5051250;28;20037;-72
2022/07/28 12:59:09;;;;;;;1.13;0.82;;;24.30;66.80;;;;;;5051327;28;20547;-73